Terminal Aerodrome Forecast
Issued by NWS

Home | Current Version | Previous Version | Graphics & Text | Print | Product List | Glossary On
Versions: 1 2 3 4 5 6 7 8 9 10 11 12 13 14 15 16 17 18 19 20 21
000
FTUS43 KMPX 282300
TAFRWF
TAF
KRWF 282337Z 2900/2924 20006KT P6SM VCSH SCT050 BKN090
     FM290200 22005KT P6SM SCT080 BKN250
     FM290800 35006KT P6SM SCT025 BKN070
     FM291100 02008KT P6SM BKN007 OVC018
     FM291500 05010KT P6SM VCSH SCT007 OVC018
     FM292100 06008KT P6SM SCT020 BKN040=

USA.gov is the U.S. government's official web portal to all federal, state and local government web resources and services.